Wausau Downtown Airport
KAUW : now visible

Airfield :











YOU CAN JOIN US ON...

 
LOGIN :

Register | Disclaimer

   EN    FR    IT 

 









Legend :    VFR   Marginal VFR   IFR   Intensive IFR   Very Intensive IFR
Visi :
Ceiling :
>= 8 km
>= 3000ft
5 to 8 km
1000 to 3000 ft
1500m to 5 km
500 to 1000 ft
800 to 1500m
200 to 500 ft
< 800m
< 200 ft
Symbols :   Thunderstorms  Fog  Heavy snow  Heavy precipitations  Wind > 20 kt






- Airport Elevation : 1201 ft


KAUW - Wausau Downtown

CURRENT METAR :
  • 030154Z AUTO 12005KT 10SM CLR 10/02 A3004 RMK AO2 SLP183 T01000017

EXPIRED METARs :
  • 030054Z AUTO 12009KT 10SM FEW100 12/02 A3003 RMK AO2 SLP180 T01170017
  • 022354Z AUTO 13011KT 10SM CLR 12/02 A3003 RMK AO2 SLP181 T01220017 10150 20122 58000

TAF KAUW
Valid from the 03 at 00:00 until the 04 at 00:00 UTC


022320Z 0300/0324 13006KT P6SM BKN080
FM031200 12007KT P6SM BKN040
FM031600 13010KT P6SM BKN024
FM031700 14010G15KT P6SM -SHRA SCT014 OVC022
FM032200 VRB03KT 4SM -RA BR OVC014



MET'MAP, your aeronautical weather chart ! - Copyright ORBIFLY December 2007 - Disclaimer

ORBIFLY MET'MAP TEAM :

Programming & Development : Alexandra Zaïnal
Concept & original design : Baudouin d'Aumeries
Assistance for programming : Marc-Olivier Méhu
Technical & hardware support : Manuel Goepfert

Contact : metmap@orbifly.com




SOURCES & CREDITS :

   NOAA       Earth
Advisory